sensor_id;sensor_type;location;lat;lon;timestamp;pressure;altitude;pressure_sealevel;temperature;humidity
17362;BME280;8798;51.938;4.348;2022-08-19T00:01:45;100826.25;;;21.08;69.46
17362;BME280;8798;51.938;4.348;2022-08-19T00:04:23;100833.00;;;21.05;69.92
17362;BME280;8798;51.938;4.348;2022-08-19T00:06:52;100836.81;;;21.04;69.58
17362;BME280;8798;51.938;4.348;2022-08-19T00:09:21;100841.66;;;21.02;69.69
17362;BME280;8798;51.938;4.348;2022-08-19T00:11:49;100840.81;;;21.02;70.09
17362;BME280;8798;51.938;4.348;2022-08-19T00:14:17;100842.94;;;21.00;69.84
17362;BME280;8798;51.938;4.348;2022-08-19T00:16:47;100845.03;;;20.98;69.84
17362;BME280;8798;51.938;4.348;2022-08-19T00:19:16;100857.63;;;20.99;70.06
17362;BME280;8798;51.938;4.348;2022-08-19T00:21:45;100884.53;;;21.02;69.89
17362;BME280;8798;51.938;4.348;2022-08-19T00:24:13;100904.03;;;21.05;70.31
17362;BME280;8798;51.938;4.348;2022-08-19T00:26:43;100932.59;;;21.10;70.09
17362;BME280;8798;51.938;4.348;2022-08-19T00:29:13;100940.78;;;21.10;70.25
17362;BME280;8798;51.938;4.348;2022-08-19T00:31:41;100942.66;;;21.09;70.35
17362;BME280;8798;51.938;4.348;2022-08-19T00:34:09;100929.44;;;21.06;70.63
17362;BME280;8798;51.938;4.348;2022-08-19T00:36:38;100940.63;;;21.04;70.18
17362;BME280;8798;51.938;4.348;2022-08-19T00:39:08;100945.22;;;21.04;70.33
17362;BME280;8798;51.938;4.348;2022-08-19T00:41:36;100942.47;;;21.04;70.53
17362;BME280;8798;51.938;4.348;2022-08-19T00:44:07;100946.28;;;21.03;70.45
17362;BME280;8798;51.938;4.348;2022-08-19T00:46:37;100960.78;;;21.03;70.48
17362;BME280;8798;51.938;4.348;2022-08-19T00:49:09;100965.19;;;21.04;70.45
17362;BME280;8798;51.938;4.348;2022-08-19T00:51:37;100982.63;;;21.03;70.47
17362;BME280;8798;51.938;4.348;2022-08-19T00:54:05;100991.66;;;21.04;70.58
17362;BME280;8798;51.938;4.348;2022-08-19T00:56:35;100989.16;;;21.02;70.90
17362;BME280;8798;51.938;4.348;2022-08-19T00:59:07;100983.91;;;21.01;70.70
17362;BME280;8798;51.938;4.348;2022-08-19T01:01:36;100994.00;;;21.00;70.94
17362;BME280;8798;51.938;4.348;2022-08-19T01:04:05;100997.56;;;21.01;71.03
17362;BME280;8798;51.938;4.348;2022-08-19T01:06:33;101003.84;;;21.01;70.91
17362;BME280;8798;51.938;4.348;2022-08-19T01:09:04;101010.38;;;21.00;70.77
17362;BME280;8798;51.938;4.348;2022-08-19T01:11:41;101022.97;;;21.01;70.73
17362;BME280;8798;51.938;4.348;2022-08-19T01:14:10;101035.59;;;21.02;70.98
17362;BME280;8798;51.938;4.348;2022-08-19T01:16:40;101045.47;;;21.03;71.37
17362;BME280;8798;51.938;4.348;2022-08-19T01:19:13;101046.28;;;21.04;71.21
17362;BME280;8798;51.938;4.348;2022-08-19T01:21:49;101044.84;;;21.01;70.95
17362;BME280;8798;51.938;4.348;2022-08-19T01:24:20;101047.81;;;21.00;71.47
17362;BME280;8798;51.938;4.348;2022-08-19T01:26:48;101047.19;;;20.98;71.13
17362;BME280;8798;51.938;4.348;2022-08-19T01:29:16;101043.81;;;20.96;71.41
17362;BME280;8798;51.938;4.348;2022-08-19T01:31:45;101044.03;;;20.94;71.68
17362;BME280;8798;51.938;4.348;2022-08-19T01:34:13;101042.16;;;20.95;71.58
17362;BME280;8798;51.938;4.348;2022-08-19T01:36:44;101052.22;;;20.94;71.68
17362;BME280;8798;51.938;4.348;2022-08-19T01:39:15;101053.28;;;20.93;71.66
17362;BME280;8798;51.938;4.348;2022-08-19T01:41:45;101057.91;;;20.93;71.48
17362;BME280;8798;51.938;4.348;2022-08-19T01:44:15;101058.13;;;20.91;71.75
17362;BME280;8798;51.938;4.348;2022-08-19T01:46:46;101073.47;;;20.92;71.68
17362;BME280;8798;51.938;4.348;2022-08-19T01:49:16;101078.69;;;20.94;71.71
17362;BME280;8798;51.938;4.348;2022-08-19T01:51:44;101091.94;;;20.97;71.97
17362;BME280;8798;51.938;4.348;2022-08-19T01:54:14;101118.59;;;21.01;71.67
17362;BME280;8798;51.938;4.348;2022-08-19T01:56:58;101141.91;;;21.04;72.07
17362;BME280;8798;51.938;4.348;2022-08-19T01:59:27;101153.47;;;21.06;71.87
17362;BME280;8798;51.938;4.348;2022-08-19T02:01:56;101157.03;;;21.07;71.93
17362;BME280;8798;51.938;4.348;2022-08-19T02:04:23;101176.78;;;21.09;72.23
17362;BME280;8798;51.938;4.348;2022-08-19T02:06:51;101198.25;;;21.12;72.13
17362;BME280;8798;51.938;4.348;2022-08-19T02:09:19;101221.34;;;21.16;72.14
17362;BME280;8798;51.938;4.348;2022-08-19T02:11:47;101213.16;;;21.16;72.16
17362;BME280;8798;51.938;4.348;2022-08-19T02:14:16;101222.19;;;21.16;72.15
17362;BME280;8798;51.938;4.348;2022-08-19T02:16:44;101224.91;;;21.16;72.27
17362;BME280;8798;51.938;4.348;2022-08-19T02:19:12;101229.53;;;21.16;72.39
17362;BME280;8798;51.938;4.348;2022-08-19T02:21:40;101219.69;;;21.15;72.60
17362;BME280;8798;51.938;4.348;2022-08-19T02:24:07;101228.91;;;21.14;72.69
17362;BME280;8798;51.938;4.348;2022-08-19T02:26:35;101228.06;;;21.13;72.50
17362;BME280;8798;51.938;4.348;2022-08-19T02:29:03;101217.38;;;21.12;72.44
17362;BME280;8798;51.938;4.348;2022-08-19T02:31:33;101229.13;;;21.12;72.43
17362;BME280;8798;51.938;4.348;2022-08-19T02:34:01;101227.44;;;21.11;72.43
17362;BME280;8798;51.938;4.348;2022-08-19T02:36:28;101223.03;;;21.10;72.82
17362;BME280;8798;51.938;4.348;2022-08-19T02:38:57;101230.16;;;21.11;72.63
17362;BME280;8798;51.938;4.348;2022-08-19T02:41:26;101231.03;;;21.12;72.80
17362;BME280;8798;51.938;4.348;2022-08-19T02:43:55;101234.81;;;21.11;72.58
17362;BME280;8798;51.938;4.348;2022-08-19T02:46:45;101233.13;;;21.10;73.03
17362;BME280;8798;51.938;4.348;2022-08-19T02:49:14;101226.81;;;21.09;72.92
17362;BME280;8798;51.938;4.348;2022-08-19T02:51:44;101235.25;;;21.08;72.87
17362;BME280;8798;51.938;4.348;2022-08-19T02:54:13;101221.56;;;21.08;73.08
17362;BME280;8798;51.938;4.348;2022-08-19T02:56:42;101222.84;;;21.05;73.10
17362;BME280;8798;51.938;4.348;2022-08-19T02:59:10;101214.66;;;21.05;72.97
17362;BME280;8798;51.938;4.348;2022-08-19T03:01:40;101216.53;;;21.04;73.34
17362;BME280;8798;51.938;4.348;2022-08-19T03:04:12;101214.22;;;21.01;72.94
17362;BME280;8798;51.938;4.348;2022-08-19T03:06:45;101213.38;;;21.01;73.01
17362;BME280;8798;51.938;4.348;2022-08-19T03:09:14;101208.97;;;21.00;73.57
17362;BME280;8798;51.938;4.348;2022-08-19T03:11:42;101204.34;;;21.00;73.32
17362;BME280;8798;51.938;4.348;2022-08-19T03:14:10;101215.47;;;20.99;73.37
17362;BME280;8798;51.938;4.348;2022-08-19T03:16:42;101221.56;;;21.01;73.23
17362;BME280;8798;51.938;4.348;2022-08-19T03:19:12;101222.41;;;21.01;73.70
17362;BME280;8798;51.938;4.348;2022-08-19T03:21:43;101223.47;;;21.00;73.50
17362;BME280;8798;51.938;4.348;2022-08-19T03:24:12;101227.28;;;20.99;73.39
17362;BME280;8798;51.938;4.348;2022-08-19T03:26:40;101223.47;;;21.00;73.41
17362;BME280;8798;51.938;4.348;2022-08-19T03:29:09;101242.41;;;21.02;73.43
17362;BME280;8798;51.938;4.348;2022-08-19T03:31:39;101249.31;;;21.04;73.86
17362;BME280;8798;51.938;4.348;2022-08-19T03:34:22;101245.97;;;21.02;73.63
17362;BME280;8798;51.938;4.348;2022-08-19T03:36:53;101241.34;;;21.03;73.57
17362;BME280;8798;51.938;4.348;2022-08-19T03:39:23;101248.69;;;21.02;74.01
17362;BME280;8798;51.938;4.348;2022-08-19T03:41:52;101237.13;;;21.00;73.88
17362;BME280;8798;51.938;4.348;2022-08-19T03:44:43;101226.63;;;20.97;73.94
17362;BME280;8798;51.938;4.348;2022-08-19T03:47:12;101232.09;;;20.97;73.77
17362;BME280;8798;51.938;4.348;2022-08-19T03:49:44;101224.94;;;20.96;73.97
17362;BME280;8798;51.938;4.348;2022-08-19T03:52:12;101210.88;;;20.93;74.09
17362;BME280;8798;51.938;4.348;2022-08-19T03:54:41;101219.91;;;20.93;74.21
17362;BME280;8798;51.938;4.348;2022-08-19T03:57:09;101208.56;;;20.90;74.30
17362;BME280;8798;51.938;4.348;2022-08-19T03:59:38;101228.28;;;20.92;74.50
17362;BME280;8798;51.938;4.348;2022-08-19T04:02:08;101231.66;;;20.94;74.54
17362;BME280;8798;51.938;4.348;2022-08-19T04:04:38;101253.94;;;20.97;74.29
17362;BME280;8798;51.938;4.348;2022-08-19T04:07:09;101271.59;;;21.01;74.14
17362;BME280;8798;51.938;4.348;2022-08-19T04:09:37;101280.41;;;21.03;74.27
17362;BME280;8798;51.938;4.348;2022-08-19T04:12:05;101281.47;;;21.02;74.37
17362;BME280;8798;51.938;4.348;2022-08-19T04:14:34;101288.84;;;21.02;74.43
17362;BME280;8798;51.938;4.348;2022-08-19T04:17:02;101293.25;;;21.03;74.67
17362;BME280;8798;51.938;4.348;2022-08-19T04:19:32;101307.31;;;21.07;74.38
17362;BME280;8798;51.938;4.348;2022-08-19T04:22:01;101332.13;;;21.12;74.56
17362;BME280;8798;51.938;4.348;2022-08-19T04:24:30;101330.00;;;21.14;74.65
17362;BME280;8798;51.938;4.348;2022-08-19T04:26:59;101336.53;;;21.13;74.78
17362;BME280;8798;51.938;4.348;2022-08-19T04:29:28;101338.22;;;21.14;74.24
17362;BME280;8798;51.938;4.348;2022-08-19T04:31:57;101353.56;;;21.15;74.59
17362;BME280;8798;51.938;4.348;2022-08-19T04:34:35;101353.16;;;21.18;74.77
17362;BME280;8798;51.938;4.348;2022-08-19T04:37:23;101374.59;;;21.21;74.53
17362;BME280;8798;51.938;4.348;2022-08-19T04:39:56;101389.53;;;21.25;74.36
17362;BME280;8798;51.938;4.348;2022-08-19T04:42:41;101390.16;;;21.27;74.46
17362;BME280;8798;51.938;4.348;2022-08-19T04:45:10;101405.50;;;21.28;74.43
17362;BME280;8798;51.938;4.348;2022-08-19T04:47:41;101403.81;;;21.27;74.95
17362;BME280;8798;51.938;4.348;2022-08-19T04:50:24;101384.06;;;21.25;74.88
17362;BME280;8798;51.938;4.348;2022-08-19T04:52:52;101390.16;;;21.27;74.81
17362;BME280;8798;51.938;4.348;2022-08-19T04:55:23;101395.63;;;21.27;74.73
17362;BME280;8798;51.938;4.348;2022-08-19T04:57:53;101402.75;;;21.28;74.65
17362;BME280;8798;51.938;4.348;2022-08-19T05:00:21;101402.75;;;21.28;75.15
17362;BME280;8798;51.938;4.348;2022-08-19T05:02:49;101413.50;;;21.30;74.86
17362;BME280;8798;51.938;4.348;2022-08-19T05:05:17;101406.13;;;21.30;74.79
17362;BME280;8798;51.938;4.348;2022-08-19T05:07:46;101415.16;;;21.31;74.72
17362;BME280;8798;51.938;4.348;2022-08-19T05:10:14;101428.22;;;21.35;74.71
17362;BME280;8798;51.938;4.348;2022-08-19T05:12:43;101435.34;;;21.36;75.18
17362;BME280;8798;51.938;4.348;2022-08-19T05:15:11;101434.31;;;21.37;74.95
17362;BME280;8798;51.938;4.348;2022-08-19T05:17:39;101434.31;;;21.37;75.13
17362;BME280;8798;51.938;4.348;2022-08-19T05:20:27;101422.75;;;21.35;75.17
17362;BME280;8798;51.938;4.348;2022-08-19T05:23:13;101433.50;;;21.37;75.27
17362;BME280;8798;51.938;4.348;2022-08-19T05:25:47;101445.69;;;21.41;75.28
17362;BME280;8798;51.938;4.348;2022-08-19T05:28:16;101459.16;;;21.42;75.00
17362;BME280;8798;51.938;4.348;2022-08-19T05:30:45;101461.72;;;21.44;75.08
17362;BME280;8798;51.938;4.348;2022-08-19T05:33:14;101460.84;;;21.43;74.94
17362;BME280;8798;51.938;4.348;2022-08-19T05:35:42;101437.50;;;21.41;75.15
17362;BME280;8798;51.938;4.348;2022-08-19T05:38:10;101444.88;;;21.40;75.26
17362;BME280;8798;51.938;4.348;2022-08-19T05:40:39;101443.84;;;21.41;75.07
17362;BME280;8798;51.938;4.348;2022-08-19T05:43:07;101449.06;;;21.43;75.35
17362;BME280;8798;51.938;4.348;2022-08-19T05:45:40;101447.16;;;21.43;75.52
17362;BME280;8798;51.938;4.348;2022-08-19T05:48:08;101435.81;;;21.40;75.07
17362;BME280;8798;51.938;4.348;2022-08-19T05:50:38;101410.16;;;21.34;75.26
17362;BME280;8798;51.938;4.348;2022-08-19T05:53:06;101397.09;;;21.30;75.51
17362;BME280;8798;51.938;4.348;2022-08-19T05:55:35;101378.16;;;21.28;75.18
17362;BME280;8798;51.938;4.348;2022-08-19T05:58:07;101385.34;;;21.29;75.51
17362;BME280;8798;51.938;4.348;2022-08-19T06:00:36;101391.41;;;21.31;75.48
17362;BME280;8798;51.938;4.348;2022-08-19T06:03:06;101410.97;;;21.35;75.65
17362;BME280;8798;51.938;4.348;2022-08-19T06:05:39;101411.63;;;21.37;75.67
17362;BME280;8798;51.938;4.348;2022-08-19T06:08:17;101402.13;;;21.33;75.74
17362;BME280;8798;51.938;4.348;2022-08-19T06:10:45;101428.66;;;21.39;75.36
17362;BME280;8798;51.938;4.348;2022-08-19T06:13:13;101449.91;;;21.43;75.75
17362;BME280;8798;51.938;4.348;2022-08-19T06:15:41;101470.97;;;21.50;75.46
17362;BME280;8798;51.938;4.348;2022-08-19T06:18:12;101518.94;;;21.59;75.48
17362;BME280;8798;51.938;4.348;2022-08-19T06:20:40;101547.97;;;21.66;75.45
17362;BME280;8798;51.938;4.348;2022-08-19T06:23:21;101589.63;;;21.75;75.35
17362;BME280;8798;51.938;4.348;2022-08-19T06:25:49;101608.81;;;21.82;75.88
17362;BME280;8798;51.938;4.348;2022-08-19T06:28:17;101634.28;;;21.89;75.54
17362;BME280;8798;51.938;4.348;2022-08-19T06:30:45;101636.19;;;21.88;75.57
17362;BME280;8798;51.938;4.348;2022-08-19T06:33:15;101658.31;;;21.94;75.90
17362;BME280;8798;51.938;4.348;2022-08-19T06:35:44;101678.09;;;22.02;75.48
17362;BME280;8798;51.938;4.348;2022-08-19T06:38:12;101719.81;;;22.11;75.81
17362;BME280;8798;51.938;4.348;2022-08-19T06:40:39;101756.06;;;22.20;75.64
17362;BME280;8798;51.938;4.348;2022-08-19T06:43:07;101751.22;;;22.22;75.45
17362;BME280;8798;51.938;4.348;2022-08-19T06:45:36;101745.75;;;22.22;75.74
17362;BME280;8798;51.938;4.348;2022-08-19T06:48:05;101728.69;;;22.20;75.27
17362;BME280;8798;51.938;4.348;2022-08-19T06:50:34;101709.72;;;22.18;75.72
17362;BME280;8798;51.938;4.348;2022-08-19T06:53:06;101716.88;;;22.19;75.82
17362;BME280;8798;51.938;4.348;2022-08-19T06:55:34;101712.25;;;22.20;75.45
17362;BME280;8798;51.938;4.348;2022-08-19T06:58:02;101718.38;;;22.22;75.67
17362;BME280;8798;51.938;4.348;2022-08-19T07:00:31;101714.38;;;22.24;75.68
17362;BME280;8798;51.938;4.348;2022-08-19T07:02:59;101748.09;;;22.31;75.88
17362;BME280;8798;51.938;4.348;2022-08-19T07:05:39;101764.75;;;22.37;75.29
17362;BME280;8798;51.938;4.348;2022-08-19T07:08:11;101787.50;;;22.44;75.41
17362;BME280;8798;51.938;4.348;2022-08-19T07:10:43;101820.19;;;22.52;75.58
17362;BME280;8798;51.938;4.348;2022-08-19T07:13:11;101836.00;;;22.57;75.87
17362;BME280;8798;51.938;4.348;2022-08-19T07:15:39;101840.00;;;22.61;75.74
17362;BME280;8798;51.938;4.348;2022-08-19T07:18:08;101850.75;;;22.62;75.50
17362;BME280;8798;51.938;4.348;2022-08-19T07:20:39;101837.91;;;22.63;75.60
17362;BME280;8798;51.938;4.348;2022-08-19T07:23:07;101826.09;;;22.62;75.29
17362;BME280;8798;51.938;4.348;2022-08-19T07:25:42;101817.88;;;22.62;75.10
17362;BME280;8798;51.938;4.348;2022-08-19T07:28:18;101818.50;;;22.64;75.38
17362;BME280;8798;51.938;4.348;2022-08-19T07:30:50;101834.13;;;22.70;75.32
17362;BME280;8798;51.938;4.348;2022-08-19T07:33:19;101849.09;;;22.74;75.67
17362;BME280;8798;51.938;4.348;2022-08-19T07:35:49;101857.53;;;22.80;74.91
17362;BME280;8798;51.938;4.348;2022-08-19T07:38:17;101881.38;;;22.86;75.08
17362;BME280;8798;51.938;4.348;2022-08-19T07:40:45;101906.66;;;22.94;74.95
17362;BME280;8798;51.938;4.348;2022-08-19T07:43:13;101934.97;;;23.02;74.98
17362;BME280;8798;51.938;4.348;2022-08-19T07:45:44;101957.78;;;23.09;75.46
17362;BME280;8798;51.938;4.348;2022-08-19T07:48:13;101974.25;;;23.15;75.07
17362;BME280;8798;51.938;4.348;2022-08-19T07:50:41;101991.75;;;23.21;74.78
17362;BME280;8798;51.938;4.348;2022-08-19T07:53:10;102017.50;;;23.27;74.87
17362;BME280;8798;51.938;4.348;2022-08-19T07:55:39;102009.72;;;23.30;74.77
17362;BME280;8798;51.938;4.348;2022-08-19T07:58:11;102005.06;;;23.31;75.36
17362;BME280;8798;51.938;4.348;2022-08-19T08:00:40;101996.66;;;23.32;75.17
17362;BME280;8798;51.938;4.348;2022-08-19T08:03:08;102002.78;;;23.34;75.04
17362;BME280;8798;51.938;4.348;2022-08-19T08:05:36;101993.28;;;23.37;74.50
17362;BME280;8798;51.938;4.348;2022-08-19T08:08:23;101988.63;;;23.37;74.70
17362;BME280;8798;51.938;4.348;2022-08-19T08:11:14;101992.84;;;23.40;74.70
17362;BME280;8798;51.938;4.348;2022-08-19T08:13:45;102024.31;;;23.51;74.61
17362;BME280;8798;51.938;4.348;2022-08-19T08:16:31;102055.16;;;23.59;74.85
17362;BME280;8798;51.938;4.348;2022-08-19T08:19:06;102058.09;;;23.65;74.45
17362;BME280;8798;51.938;4.348;2022-08-19T08:21:48;102064.22;;;23.67;74.75
17362;BME280;8798;51.938;4.348;2022-08-19T08:24:17;102062.09;;;23.69;74.14
17362;BME280;8798;51.938;4.348;2022-08-19T08:26:46;102043.53;;;23.71;74.73
17362;BME280;8798;51.938;4.348;2022-08-19T08:29:22;102053.28;;;23.73;74.27
17362;BME280;8798;51.938;4.348;2022-08-19T08:31:51;102078.84;;;23.80;74.18
17362;BME280;8798;51.938;4.348;2022-08-19T08:34:25;102097.00;;;23.88;74.38
17362;BME280;8798;51.938;4.348;2022-08-19T08:36:53;102145.56;;;24.01;74.38
17362;BME280;8798;51.938;4.348;2022-08-19T08:39:22;102170.75;;;24.11;74.10
17362;BME280;8798;51.938;4.348;2022-08-19T08:41:53;102179.41;;;24.15;74.30
17362;BME280;8798;51.938;4.348;2022-08-19T08:44:32;102144.97;;;24.12;73.85
17362;BME280;8798;51.938;4.348;2022-08-19T08:47:12;102112.66;;;24.08;73.72
17362;BME280;8798;51.938;4.348;2022-08-19T08:49:44;102104.41;;;24.08;73.94
17362;BME280;8798;51.938;4.348;2022-08-19T08:52:21;102113.50;;;24.15;73.83
17362;BME280;8798;51.938;4.348;2022-08-19T08:54:53;102126.59;;;24.19;73.71
17362;BME280;8798;51.938;4.348;2022-08-19T08:57:27;102145.84;;;24.26;73.23
17362;BME280;8798;51.938;4.348;2022-08-19T09:00:06;102169.28;;;24.35;73.20
17362;BME280;8798;51.938;4.348;2022-08-19T09:02:41;102192.75;;;24.44;73.49
17362;BME280;8798;51.938;4.348;2022-08-19T09:05:09;102203.97;;;24.50;73.29
17362;BME280;8798;51.938;4.348;2022-08-19T09:07:47;102190.22;;;24.50;72.99
17362;BME280;8798;51.938;4.348;2022-08-19T09:10:22;102166.34;;;24.50;72.83
17362;BME280;8798;51.938;4.348;2022-08-19T09:13:02;102172.72;;;24.51;72.82
17362;BME280;8798;51.938;4.348;2022-08-19T09:15:39;102158.53;;;24.54;72.58
17362;BME280;8798;51.938;4.348;2022-08-19T09:18:08;102147.53;;;24.54;72.73
17362;BME280;8798;51.938;4.348;2022-08-19T09:20:45;102137.19;;;24.56;72.34
17362;BME280;8798;51.938;4.348;2022-08-19T09:23:13;102142.03;;;24.60;72.11
17362;BME280;8798;51.938;4.348;2022-08-19T09:25:42;102140.97;;;24.61;72.47
17362;BME280;8798;51.938;4.348;2022-08-19T09:48:00;101930.47;;;24.40;71.29
17362;BME280;8798;51.938;4.348;2022-08-19T09:50:49;101923.09;;;24.41;71.42
17362;BME280;8798;51.938;4.348;2022-08-19T09:53:19;101950.34;;;24.49;71.28
17362;BME280;8798;51.938;4.348;2022-08-19T09:55:59;102000.81;;;24.61;70.94
17362;BME280;8798;51.938;4.348;2022-08-19T09:58:41;102009.25;;;24.66;70.47
17362;BME280;8798;51.938;4.348;2022-08-19T10:01:24;102016.84;;;24.71;70.67
17362;BME280;8798;51.938;4.348;2022-08-19T10:04:01;102030.16;;;24.74;70.71
17362;BME280;8798;51.938;4.348;2022-08-19T10:06:55;101963.59;;;24.65;70.68
17362;BME280;8798;51.938;4.348;2022-08-19T10:09:31;101932.94;;;24.62;70.18
17362;BME280;8798;51.938;4.348;2022-08-19T10:12:19;101949.63;;;24.67;70.37
17362;BME280;8798;51.938;4.348;2022-08-19T10:14:50;101965.47;;;24.72;70.13
17362;BME280;8798;51.938;4.348;2022-08-19T10:17:30;102016.78;;;24.84;70.17
17362;BME280;8798;51.938;4.348;2022-08-19T10:20:22;102053.53;;;24.97;70.16
17362;BME280;8798;51.938;4.348;2022-08-19T10:23:09;102071.06;;;25.02;70.12
17362;BME280;8798;51.938;4.348;2022-08-19T10:25:39;102092.00;;;25.10;69.65
17362;BME280;8798;51.938;4.348;2022-08-19T10:28:22;102131.75;;;25.21;70.01
17362;BME280;8798;51.938;4.348;2022-08-19T10:31:01;102164.31;;;25.30;69.52
17362;BME280;8798;51.938;4.348;2022-08-19T10:33:40;102183.56;;;25.37;69.36
17362;BME280;8798;51.938;4.348;2022-08-19T10:36:23;102190.94;;;25.43;69.49
17362;BME280;8798;51.938;4.348;2022-08-19T10:39:31;102196.63;;;25.48;69.20
17362;BME280;8798;51.938;4.348;2022-08-19T10:42:10;102152.41;;;25.43;69.22
17362;BME280;8798;51.938;4.348;2022-08-19T10:44:52;102143.31;;;25.43;68.64
17362;BME280;8798;51.938;4.348;2022-08-19T10:47:40;102123.81;;;25.44;68.79
17362;BME280;8798;51.938;4.348;2022-08-19T10:50:20;102108.56;;;25.42;68.70
17362;BME280;8798;51.938;4.348;2022-08-19T10:53:21;102071.34;;;25.39;68.27
17362;BME280;8798;51.938;4.348;2022-08-19T10:56:00;102037.31;;;25.34;68.73
17362;BME280;8798;51.938;4.348;2022-08-19T10:58:52;101986.34;;;25.24;68.46
17362;BME280;8798;51.938;4.348;2022-08-19T11:01:31;101938.78;;;25.17;68.34
17362;BME280;8798;51.938;4.348;2022-08-19T11:04:10;101925.22;;;25.16;68.35
17362;BME280;8798;51.938;4.348;2022-08-19T11:06:59;101888.47;;;25.10;68.37
17362;BME280;8798;51.938;4.348;2022-08-19T11:09:41;101910.44;;;25.17;68.31
17362;BME280;8798;51.938;4.348;2022-08-19T11:12:10;101945.94;;;25.25;67.96
17362;BME280;8798;51.938;4.348;2022-08-19T11:14:50;101967.47;;;25.35;67.84
17362;BME280;8798;51.938;4.348;2022-08-19T11:17:22;102009.31;;;25.43;68.09
17362;BME280;8798;51.938;4.348;2022-08-19T11:20:00;102070.78;;;25.62;67.55
17362;BME280;8798;51.938;4.348;2022-08-19T11:22:40;102136.56;;;25.77;67.63
17362;BME280;8798;51.938;4.348;2022-08-19T11:25:11;102136.94;;;25.81;67.50
17362;BME280;8798;51.938;4.348;2022-08-19T11:27:41;102110.69;;;25.78;67.52
17362;BME280;8798;51.938;4.348;2022-08-19T11:30:13;102075.81;;;25.72;67.67
17362;BME280;8798;51.938;4.348;2022-08-19T11:32:51;102072.34;;;25.77;67.05
17362;BME280;8798;51.938;4.348;2022-08-19T11:35:20;102082.13;;;25.79;67.06
17362;BME280;8798;51.938;4.348;2022-08-19T11:37:50;102096.06;;;25.84;67.19
17362;BME280;8798;51.938;4.348;2022-08-19T11:40:21;102105.56;;;25.88;67.15
17362;BME280;8798;51.938;4.348;2022-08-19T11:42:50;102113.16;;;25.93;67.11
17362;BME280;8798;51.938;4.348;2022-08-19T11:45:30;102106.38;;;25.95;66.79
17362;BME280;8798;51.938;4.348;2022-08-19T11:47:58;102082.88;;;25.93;67.14
17362;BME280;8798;51.938;4.348;2022-08-19T11:50:26;102082.88;;;25.93;67.06
17362;BME280;8798;51.938;4.348;2022-08-19T11:52:56;102070.81;;;25.94;66.72
17362;BME280;8798;51.938;4.348;2022-08-19T11:55:25;102066.13;;;25.94;66.67
17362;BME280;8798;51.938;4.348;2022-08-19T11:57:53;102043.47;;;25.92;66.72
17362;BME280;8798;51.938;4.348;2022-08-19T12:00:21;102018.28;;;25.89;66.58
17362;BME280;8798;51.938;4.348;2022-08-19T12:02:52;101996.72;;;25.86;66.95
17362;BME280;8798;51.938;4.348;2022-08-19T12:05:21;101978.47;;;25.85;66.40
17362;BME280;8798;51.938;4.348;2022-08-19T12:07:49;101963.00;;;25.84;66.61
17362;BME280;8798;51.938;4.348;2022-08-19T12:10:20;101964.72;;;25.85;66.67
17362;BME280;8798;51.938;4.348;2022-08-19T12:12:58;101943.97;;;25.82;66.49
17362;BME280;8798;51.938;4.348;2022-08-19T12:15:35;101906.31;;;25.76;66.95
17362;BME280;8798;51.938;4.348;2022-08-19T12:18:04;101915.81;;;25.80;66.40
17362;BME280;8798;51.938;4.348;2022-08-19T12:20:34;101958.56;;;25.89;66.46
17362;BME280;8798;51.938;4.348;2022-08-19T12:23:03;101965.28;;;25.93;66.25
17362;BME280;8798;51.938;4.348;2022-08-19T12:25:31;101984.50;;;26.00;66.86
17362;BME280;8798;51.938;4.348;2022-08-19T12:28:00;102007.31;;;26.07;66.32
17362;BME280;8798;51.938;4.348;2022-08-19T12:30:30;102022.94;;;26.13;66.09
17362;BME280;8798;51.938;4.348;2022-08-19T12:32:58;102045.75;;;26.21;66.50
17362;BME280;8798;51.938;4.348;2022-08-19T12:35:32;102081.06;;;26.30;66.35
17362;BME280;8798;51.938;4.348;2022-08-19T12:38:18;102107.47;;;26.38;66.24
17362;BME280;8798;51.938;4.348;2022-08-19T12:40:52;102123.13;;;26.44;66.06
17362;BME280;8798;51.938;4.348;2022-08-19T12:43:32;102126.25;;;26.48;66.42
17362;BME280;8798;51.938;4.348;2022-08-19T12:46:11;102092.81;;;26.44;65.81
17362;BME280;8798;51.938;4.348;2022-08-19T12:48:40;102097.66;;;26.49;66.11
17362;BME280;8798;51.938;4.348;2022-08-19T12:51:21;102141.88;;;26.60;65.83
17362;BME280;8798;51.938;4.348;2022-08-19T12:53:49;102158.13;;;26.69;65.71
17362;BME280;8798;51.938;4.348;2022-08-19T12:56:17;102200.44;;;26.81;65.74
17362;BME280;8798;51.938;4.348;2022-08-19T12:58:50;102192.16;;;26.81;65.77
17362;BME280;8798;51.938;4.348;2022-08-19T13:01:19;102170.31;;;26.79;65.59
17362;BME280;8798;51.938;4.348;2022-08-19T13:03:49;102131.56;;;26.74;65.14
17362;BME280;8798;51.938;4.348;2022-08-19T13:06:18;102090.03;;;26.69;65.00
17362;BME280;8798;51.938;4.348;2022-08-19T13:08:46;102147.56;;;26.84;64.79
17362;BME280;8798;51.938;4.348;2022-08-19T13:11:17;102212.13;;;27.01;65.35
17362;BME280;8798;51.938;4.348;2022-08-19T13:13:47;102278.63;;;27.18;65.42
17362;BME280;8798;51.938;4.348;2022-08-19T13:16:18;102304.00;;;27.27;64.60
17362;BME280;8798;51.938;4.348;2022-08-19T13:18:48;102290.81;;;27.29;64.70
17362;BME280;8798;51.938;4.348;2022-08-19T13:21:26;102242.06;;;27.23;64.93
17362;BME280;8798;51.938;4.348;2022-08-19T13:23:56;102166.59;;;27.11;64.99
17362;BME280;8798;51.938;4.348;2022-08-19T13:26:32;102068.34;;;26.91;64.24
17362;BME280;8798;51.938;4.348;2022-08-19T13:29:00;101975.44;;;26.73;64.16
17362;BME280;8798;51.938;4.348;2022-08-19T13:32:20;101920.59;;;26.65;64.05
17362;BME280;8798;51.938;4.348;2022-08-19T13:35:20;101884.00;;;26.58;64.00
17362;BME280;8798;51.938;4.348;2022-08-19T13:38:00;101852.69;;;26.52;64.48
17362;BME280;8798;51.938;4.348;2022-08-19T13:40:40;101798.38;;;26.41;63.89
17362;BME280;8798;51.938;4.348;2022-08-19T13:43:14;101745.47;;;26.32;63.89
17362;BME280;8798;51.938;4.348;2022-08-19T13:45:49;101724.13;;;26.28;64.24
17362;BME280;8798;51.938;4.348;2022-08-19T13:48:40;101695.41;;;26.24;63.80